Time;durP1;ratioP1;P1;durP2;ratioP2;P2;SDS_P1;SDS_P2;PMS_P1;PMS_P2;Temp;Humidity;BMP_temperature;BMP_pressure;BME280_temperature;BME280_humidity;BME280_pressure;Samples;Min_cycle;Max_cycle;Signal;HPM_P1;HPM_P2
2023/09/02 00:00:14;;;;;;;26.77;19.52;;;18.90;99.90;;;;;;4967765;28;20491;-59
2023/09/02 00:02:40;;;;;;;30.63;20.33;;;19.00;99.90;;;;;;4967774;28;20500;-60
2023/09/02 00:05:08;;;;;;;26.63;18.20;;;19.00;99.90;;;;;;4966332;28;20895;-60
2023/09/02 00:07:35;;;;;;;25.63;19.25;;;18.90;99.90;;;;;;4968091;28;20054;-60
2023/09/02 00:10:03;;;;;;;27.77;19.17;;;18.90;99.90;;;;;;4967212;28;20571;-61
2023/09/02 00:12:30;;;;;;;28.95;21.65;;;18.90;99.90;;;;;;4967078;28;20046;-60
2023/09/02 00:14:56;;;;;;;30.35;21.50;;;18.90;99.90;;;;;;4965951;28;20097;-60
2023/09/02 00:17:24;;;;;;;30.48;20.98;;;18.90;99.90;;;;;;4948604;28;20417;-59
2023/09/02 00:19:51;;;;;;;34.13;21.92;;;18.90;99.90;;;;;;4967567;28;20086;-59
2023/09/02 00:22:17;;;;;;;33.22;21.17;;;18.90;99.90;;;;;;4953573;28;20051;-59
2023/09/02 00:24:44;;;;;;;28.20;21.08;;;18.90;99.90;;;;;;4967853;28;20128;-60
2023/09/02 00:27:12;;;;;;;30.08;21.20;;;18.90;99.90;;;;;;4971987;28;20055;-60
2023/09/02 00:29:38;;;;;;;32.75;21.17;;;18.90;99.90;;;;;;4968362;28;20038;-60
2023/09/02 00:32:05;;;;;;;28.08;19.67;;;18.90;99.90;;;;;;4968607;28;20047;-60
2023/09/02 00:34:32;;;;;;;31.63;21.73;;;18.90;99.90;;;;;;4967736;28;20056;-59
2023/09/02 00:36:59;;;;;;;33.25;23.30;;;18.80;99.90;;;;;;4969038;28;20113;-59
2023/09/02 00:39:26;;;;;;;32.65;21.30;;;18.80;99.90;;;;;;4968717;28;20043;-59
2023/09/02 00:41:54;;;;;;;33.90;22.45;;;18.80;99.90;;;;;;4963415;28;20051;-59
2023/09/02 00:44:21;;;;;;;37.53;23.88;;;18.70;99.90;;;;;;4951487;28;20137;-60
2023/09/02 00:46:47;;;;;;;40.22;24.67;;;18.70;99.90;;;;;;4968688;28;20050;-59
2023/09/02 00:49:14;;;;;;;41.97;23.85;;;18.70;99.90;;;;;;4969130;28;20495;-59
2023/09/02 00:51:41;;;;;;;38.83;23.60;;;18.70;99.90;;;;;;4968985;28;20123;-58
2023/09/02 00:54:08;;;;;;;33.03;21.88;;;18.70;99.90;;;;;;4969283;28;20042;-60
2023/09/02 00:56:35;;;;;;;38.83;25.17;;;18.60;99.90;;;;;;4968893;28;20054;-60
2023/09/02 00:59:03;;;;;;;38.88;22.70;;;18.60;99.90;;;;;;4969177;28;20054;-60
2023/09/02 01:01:32;;;;;;;33.38;21.92;;;18.60;99.90;;;;;;4951911;28;20078;-60
2023/09/02 01:03:59;;;;;;;42.15;23.02;;;18.60;99.90;;;;;;4951506;28;20483;-65
2023/09/02 01:06:26;;;;;;;37.80;22.08;;;18.50;99.90;;;;;;4951802;28;20047;-61
2023/09/02 01:08:53;;;;;;;38.28;21.77;;;18.50;99.90;;;;;;4951763;28;20051;-59
2023/09/02 01:11:20;;;;;;;42.08;23.90;;;18.50;99.90;;;;;;4968945;28;20105;-59
2023/09/02 01:13:46;;;;;;;38.05;22.25;;;18.50;99.90;;;;;;4968830;28;20569;-59
2023/09/02 01:16:13;;;;;;;35.13;22.40;;;18.40;99.90;;;;;;4968555;28;20047;-58
2023/09/02 01:18:40;;;;;;;42.35;23.33;;;18.40;99.90;;;;;;4967494;28;20096;-59
2023/09/02 01:21:30;;;;;;;34.90;21.63;;;18.50;99.90;;;;;;4968717;28;20101;-59
2023/09/02 01:24:28;;;;;;;36.65;19.52;;;18.50;99.90;;;;;;4951588;28;20081;-59
2023/09/02 01:27:15;;;;;;;35.10;21.45;;;18.40;99.90;;;;;;4961724;28;20096;-59
2023/09/02 01:30:02;;;;;;;34.92;21.33;;;18.40;99.90;;;;;;4616168;28;9999910;-59
2023/09/02 01:32:33;;;;;;;35.00;19.95;;;18.40;99.90;;;;;;4968706;28;20055;-59
2023/09/02 01:35:04;;;;;;;40.15;21.92;;;18.40;99.90;;;;;;4951790;28;20055;-59
2023/09/02 01:37:38;;;;;;;35.80;19.08;;;18.30;99.90;;;;;;4972008;28;20096;-59
2023/09/02 01:40:06;;;;;;;32.63;18.25;;;18.30;99.90;;;;;;4972908;28;20073;-59
2023/09/02 01:42:32;;;;;;;40.50;20.35;;;18.30;99.90;;;;;;4955521;28;20055;-60
2023/09/02 01:45:00;;;;;;;36.53;20.13;;;18.40;99.90;;;;;;4955480;28;20120;-59
2023/09/02 01:47:26;;;;;;;39.03;19.70;;;18.40;99.90;;;;;;4955135;28;20533;-59
2023/09/02 01:49:53;;;;;;;42.88;20.88;;;18.40;99.90;;;;;;4955342;28;20043;-60
2023/09/02 01:52:20;;;;;;;39.13;19.08;;;18.40;99.90;;;;;;4939905;28;20043;-60
2023/09/02 01:54:47;;;;;;;36.47;18.88;;;18.40;99.90;;;;;;4939644;28;20058;-59
2023/09/02 01:57:14;;;;;;;39.45;20.60;;;18.50;99.90;;;;;;4939372;28;20557;-60
2023/09/02 01:59:41;;;;;;;35.75;19.02;;;18.40;99.90;;;;;;4939468;28;20457;-59
2023/09/02 02:02:07;;;;;;;29.10;18.50;;;18.40;99.90;;;;;;4972485;28;20047;-60
2023/09/02 02:04:35;;;;;;;28.58;17.95;;;18.40;99.90;;;;;;4972306;28;20481;-60
2023/09/02 02:07:08;;;;;;;29.52;17.48;;;18.40;99.90;;;;;;4955252;28;20051;-59
2023/09/02 02:09:45;;;;;;;29.35;16.88;;;18.40;99.90;;;;;;4939918;28;20051;-60
2023/09/02 02:12:12;;;;;;;26.98;17.77;;;18.40;99.90;;;;;;4939736;28;20051;-60
2023/09/02 02:14:39;;;;;;;27.05;18.30;;;18.50;99.90;;;;;;4972068;28;20038;-59
2023/09/02 02:17:06;;;;;;;27.67;17.33;;;18.50;99.90;;;;;;4972151;28;20055;-60
2023/09/02 02:19:34;;;;;;;29.50;18.63;;;18.50;99.90;;;;;;4971925;28;20043;-60
2023/09/02 02:22:01;;;;;;;32.75;18.00;;;18.50;99.90;;;;;;4972062;28;20050;-60
2023/09/02 02:24:27;;;;;;;30.23;18.05;;;18.50;99.90;;;;;;4971844;28;20212;-61
2023/09/02 02:26:55;;;;;;;30.20;17.02;;;18.50;99.90;;;;;;4954990;28;20050;-61
2023/09/02 02:29:21;;;;;;;29.25;18.65;;;18.50;99.90;;;;;;4971952;28;20054;-61
2023/09/02 02:31:49;;;;;;;30.05;17.05;;;18.50;99.90;;;;;;4971765;28;20051;-61
2023/09/02 02:34:16;;;;;;;30.13;18.48;;;18.50;99.90;;;;;;4971720;28;20057;-60
2023/09/02 02:36:43;;;;;;;26.67;17.63;;;18.50;99.90;;;;;;4970546;28;20106;-60
2023/09/02 02:39:09;;;;;;;25.98;16.92;;;18.50;99.90;;;;;;4971785;28;20105;-61
2023/09/02 02:41:36;;;;;;;30.13;18.27;;;18.50;99.90;;;;;;4971661;28;20754;-61
2023/09/02 02:44:03;;;;;;;24.52;17.48;;;18.50;99.90;;;;;;4971875;28;20538;-60
2023/09/02 02:46:30;;;;;;;28.15;18.38;;;18.50;99.90;;;;;;4971551;28;20494;-62
2023/09/02 02:48:57;;;;;;;31.45;18.88;;;18.50;99.90;;;;;;4971456;28;20057;-61
2023/09/02 02:51:24;;;;;;;31.27;18.17;;;18.60;99.90;;;;;;4971660;28;20077;-60
2023/09/02 02:53:51;;;;;;;30.20;19.92;;;18.60;99.90;;;;;;4971539;28;20039;-60
2023/09/02 02:56:18;;;;;;;30.75;19.23;;;18.60;99.90;;;;;;4971319;28;20050;-61
2023/09/02 02:58:45;;;;;;;29.40;19.17;;;18.60;99.90;;;;;;4971779;28;20047;-60
2023/09/02 03:01:12;;;;;;;27.40;17.60;;;18.60;99.90;;;;;;4971225;28;20050;-60
2023/09/02 03:03:40;;;;;;;26.92;17.30;;;18.50;99.90;;;;;;4971535;28;20117;-60
2023/09/02 03:06:07;;;;;;;34.90;18.63;;;18.50;99.90;;;;;;4971247;28;20050;-60
2023/09/02 03:08:34;;;;;;;26.52;18.40;;;18.50;99.90;;;;;;4971272;28;20047;-60
2023/09/02 03:11:03;;;;;;;27.13;18.77;;;18.50;99.90;;;;;;4970932;28;20053;-60
2023/09/02 03:13:33;;;;;;;29.67;18.85;;;18.50;99.90;;;;;;4950790;28;20055;-60
2023/09/02 03:16:01;;;;;;;29.50;18.77;;;18.40;99.90;;;;;;4970652;28;20053;-60
2023/09/02 03:18:28;;;;;;;33.85;19.98;;;18.40;99.90;;;;;;4954070;28;20133;-61
2023/09/02 03:21:00;;;;;;;36.42;21.25;;;18.40;99.90;;;;;;4970970;28;20060;-60
2023/09/02 03:23:27;;;;;;;38.33;21.77;;;18.40;99.90;;;;;;4970866;28;20054;-60
2023/09/02 03:25:54;;;;;;;32.63;19.77;;;18.40;99.90;;;;;;4970947;28;20046;-60
2023/09/02 03:28:21;;;;;;;39.33;21.20;;;18.40;99.90;;;;;;4974414;28;20407;-60
2023/09/02 03:30:49;;;;;;;45.67;24.02;;;18.40;99.90;;;;;;4972781;28;20043;-60
2023/09/02 03:33:16;;;;;;;40.72;21.88;;;18.40;99.90;;;;;;4970806;28;20470;-60
2023/09/02 03:35:44;;;;;;;36.83;20.45;;;18.40;99.90;;;;;;4970840;28;20047;-60
2023/09/02 03:38:11;;;;;;;36.90;21.20;;;18.30;99.90;;;;;;4970715;28;20063;-60
2023/09/02 03:40:38;;;;;;;35.78;21.27;;;18.30;99.90;;;;;;4970464;28;20046;-60
2023/09/02 03:43:05;;;;;;;38.22;21.75;;;18.40;99.90;;;;;;4970589;28;20054;-60
2023/09/02 03:45:32;;;;;;;38.30;21.90;;;18.30;99.90;;;;;;4970656;28;20043;-59
2023/09/02 03:47:59;;;;;;;44.53;24.25;;;18.30;99.90;;;;;;4969999;28;20063;-60
2023/09/02 03:50:26;;;;;;;37.88;20.67;;;18.30;99.90;;;;;;4970477;28;20065;-60
2023/09/02 03:52:53;;;;;;;38.70;21.55;;;18.30;99.90;;;;;;4965761;28;20054;-60
2023/09/02 03:55:20;;;;;;;36.92;21.77;;;18.30;99.90;;;;;;4960037;28;20133;-60
2023/09/02 03:57:46;;;;;;;37.42;20.80;;;18.30;99.90;;;;;;4970372;28;20109;-60
2023/09/02 04:00:16;;;;;;;36.92;21.02;;;18.40;99.90;;;;;;4969886;28;20058;-60
2023/09/02 04:02:43;;;;;;;35.45;20.55;;;18.40;99.90;;;;;;4953111;28;20070;-60
2023/09/02 04:05:10;;;;;;;32.88;20.35;;;18.30;99.90;;;;;;4976468;28;20046;-60
2023/09/02 04:07:37;;;;;;;36.47;19.80;;;18.30;99.90;;;;;;4970909;28;20051;-60
2023/09/02 04:10:04;;;;;;;34.75;20.30;;;18.40;99.90;;;;;;4969733;28;20569;-60
2023/09/02 04:12:32;;;;;;;34.42;18.42;;;18.40;99.90;;;;;;4969486;28;20106;-60
2023/09/02 04:14:59;;;;;;;29.67;17.10;;;18.40;99.90;;;;;;4952331;28;20059;-59
2023/09/02 04:17:26;;;;;;;30.77;17.75;;;18.40;99.90;;;;;;4952006;28;20042;-60
2023/09/02 04:19:54;;;;;;;32.55;18.80;;;18.40;99.90;;;;;;4952264;28;20051;-60
2023/09/02 04:22:21;;;;;;;32.13;18.67;;;18.40;99.90;;;;;;4969233;28;20054;-61
2023/09/02 04:24:48;;;;;;;38.40;18.90;;;18.40;99.90;;;;;;4952333;28;20050;-60
2023/09/02 04:27:15;;;;;;;31.05;17.02;;;18.40;99.90;;;;;;4969783;28;20054;-60
2023/09/02 04:29:42;;;;;;;32.10;17.23;;;18.40;99.90;;;;;;4969541;28;20051;-60
2023/09/02 04:32:10;;;;;;;31.40;17.42;;;18.30;99.90;;;;;;4968491;28;20098;-60
2023/09/02 04:34:37;;;;;;;35.42;16.42;;;18.30;99.90;;;;;;4971827;28;20429;-60
2023/09/02 04:37:04;;;;;;;26.00;16.13;;;18.30;99.90;;;;;;4973897;28;20054;-60
2023/09/02 04:39:30;;;;;;;26.45;15.00;;;18.30;99.90;;;;;;4968966;28;20050;-60
2023/09/02 04:41:57;;;;;;;30.20;16.67;;;18.30;99.90;;;;;;4961314;28;20486;-60
2023/09/02 04:44:24;;;;;;;31.23;16.27;;;18.30;99.90;;;;;;4968516;28;20613;-60
2023/09/02 04:46:51;;;;;;;28.50;16.40;;;18.30;99.90;;;;;;4968249;28;20046;-60
2023/09/02 04:49:18;;;;;;;24.35;15.13;;;18.30;99.90;;;;;;4969185;28;20533;-60
2023/09/02 04:51:45;;;;;;;29.77;16.02;;;18.30;99.90;;;;;;4969704;28;20046;-60
2023/09/02 04:54:12;;;;;;;29.13;15.82;;;18.30;99.90;;;;;;4970974;28;20584;-60
2023/09/02 04:56:38;;;;;;;27.02;15.02;;;18.30;99.90;;;;;;4951657;28;20113;-60
2023/09/02 04:59:05;;;;;;;34.83;17.65;;;18.30;99.90;;;;;;4969563;28;20051;-60
2023/09/02 05:01:32;;;;;;;30.83;15.90;;;18.30;99.90;;;;;;4968390;28;20050;-60
2023/09/02 05:03:59;;;;;;;31.52;17.40;;;18.30;99.90;;;;;;4951398;28;20046;-60
2023/09/02 05:06:26;;;;;;;23.73;15.25;;;18.30;99.90;;;;;;4969016;28;20110;-60
2023/09/02 05:08:54;;;;;;;26.80;15.35;;;18.30;99.90;;;;;;4969014;28;20109;-60
2023/09/02 05:11:21;;;;;;;30.17;16.77;;;18.40;99.90;;;;;;4971486;28;20047;-60
2023/09/02 05:13:48;;;;;;;30.20;17.08;;;18.30;99.90;;;;;;4970308;28;20047;-60
2023/09/02 05:16:15;;;;;;;33.92;16.02;;;18.40;99.90;;;;;;4971784;28;20110;-61
2023/09/02 05:18:42;;;;;;;30.02;16.83;;;18.40;99.90;;;;;;4972445;28;20253;-60
2023/09/02 05:21:09;;;;;;;30.52;16.63;;;18.40;99.90;;;;;;4972886;28;20097;-60
2023/09/02 05:23:35;;;;;;;29.10;15.80;;;18.40;99.90;;;;;;4975845;28;20049;-62
2023/09/02 05:26:02;;;;;;;28.50;17.13;;;18.40;99.90;;;;;;4972762;28;20054;-60
2023/09/02 05:28:29;;;;;;;27.77;17.02;;;18.40;99.90;;;;;;4972716;28;20054;-60
2023/09/02 05:30:56;;;;;;;28.67;16.35;;;18.40;99.90;;;;;;4971995;28;20051;-60
2023/09/02 05:33:23;;;;;;;27.40;16.42;;;18.40;99.90;;;;;;4970033;28;20687;-60
2023/09/02 05:35:51;;;;;;;26.08;14.82;;;18.40;99.90;;;;;;4972252;28;20494;-60
2023/09/02 05:38:17;;;;;;;30.83;17.10;;;18.40;99.90;;;;;;4974709;28;20493;-60
2023/09/02 05:40:44;;;;;;;28.95;17.13;;;18.40;99.90;;;;;;4976703;28;20493;-60
2023/09/02 05:43:11;;;;;;;30.65;17.17;;;18.40;99.90;;;;;;4972206;28;20054;-60
2023/09/02 05:45:38;;;;;;;30.98;16.92;;;18.40;99.90;;;;;;4971259;28;20147;-60
2023/09/02 05:48:05;;;;;;;33.15;18.40;;;18.40;99.90;;;;;;4972002;28;20059;-60
2023/09/02 05:50:32;;;;;;;31.00;18.10;;;18.40;99.90;;;;;;4972525;28;20067;-60
2023/09/02 05:52:59;;;;;;;27.90;16.45;;;18.40;99.90;;;;;;4972428;28;20084;-59
2023/09/02 05:55:26;;;;;;;38.25;18.83;;;18.40;99.90;;;;;;4954775;28;20524;-62
2023/09/02 05:57:53;;;;;;;38.17;19.10;;;18.40;99.90;;;;;;4972151;28;20103;-60
2023/09/02 06:00:20;;;;;;;29.98;17.67;;;18.40;99.90;;;;;;4971953;28;20050;-60
2023/09/02 06:02:46;;;;;;;36.67;18.83;;;18.40;99.90;;;;;;4970881;28;20105;-60
2023/09/02 06:05:13;;;;;;;38.92;20.00;;;18.40;99.90;;;;;;4971689;28;20061;-60
2023/09/02 06:07:40;;;;;;;37.67;19.50;;;18.40;99.90;;;;;;4971787;28;20042;-60
2023/09/02 06:10:07;;;;;;;40.00;18.55;;;18.50;99.90;;;;;;4975548;28;20047;-60
2023/09/02 06:12:34;;;;;;;34.60;18.38;;;18.50;99.90;;;;;;4971207;28;20494;-60
2023/09/02 06:15:01;;;;;;;29.67;18.13;;;18.50;99.90;;;;;;4971618;28;20066;-60
2023/09/02 06:17:30;;;;;;;34.35;19.48;;;18.50;99.90;;;;;;4953351;28;20514;-60
2023/09/02 06:19:58;;;;;;;38.05;19.45;;;18.50;99.90;;;;;;4970943;28;20550;-60
2023/09/02 06:22:26;;;;;;;31.33;19.00;;;18.60;99.90;;;;;;4967292;28;20509;-59
2023/09/02 06:24:54;;;;;;;31.42;18.85;;;18.50;99.90;;;;;;4967928;28;20051;-59
2023/09/02 06:27:21;;;;;;;34.67;18.90;;;18.50;99.90;;;;;;4970601;28;20113;-59
2023/09/02 06:29:48;;;;;;;37.53;20.50;;;18.50;99.90;;;;;;4970852;28;20047;-60
2023/09/02 06:32:15;;;;;;;34.22;19.67;;;18.50;99.90;;;;;;4970638;28;20059;-60
2023/09/02 06:34:42;;;;;;;36.13;21.33;;;18.50;99.90;;;;;;4979776;28;20234;-59
2023/09/02 06:37:08;;;;;;;41.25;20.08;;;18.50;99.90;;;;;;4970417;28;20050;-59
2023/09/02 06:39:35;;;;;;;35.63;19.52;;;18.50;99.90;;;;;;4970341;28;20055;-59
2023/09/02 06:42:02;;;;;;;45.85;20.08;;;18.40;99.90;;;;;;4967372;28;20055;-61
2023/09/02 06:44:29;;;;;;;34.83;20.92;;;18.50;99.90;;;;;;4973034;28;20058;-60
2023/09/02 06:46:56;;;;;;;32.28;19.77;;;18.40;99.90;;;;;;4969961;28;20058;-59
2023/09/02 06:49:23;;;;;;;34.25;21.10;;;18.50;99.90;;;;;;4968099;28;20102;-60
2023/09/02 06:51:50;;;;;;;40.78;22.38;;;18.50;99.90;;;;;;4970735;28;20510;-60
2023/09/02 06:54:16;;;;;;;36.38;21.05;;;18.60;99.90;;;;;;4953886;28;20059;-59
2023/09/02 06:56:45;;;;;;;41.00;20.85;;;18.60;99.90;;;;;;4970800;28;20129;-60
2023/09/02 06:59:13;;;;;;;38.40;20.80;;;18.60;99.90;;;;;;4970710;28;20050;-61
2023/09/02 07:01:40;;;;;;;38.33;20.83;;;18.70;99.90;;;;;;4970573;28;20491;-61
2023/09/02 07:04:07;;;;;;;34.08;20.80;;;18.70;99.90;;;;;;4969171;28;20113;-61
2023/09/02 07:06:34;;;;;;;41.85;19.75;;;18.70;99.90;;;;;;4967493;28;20051;-61
2023/09/02 07:09:00;;;;;;;38.70;20.52;;;18.80;99.90;;;;;;4970617;28;20114;-59
2023/09/02 07:11:27;;;;;;;34.92;20.75;;;18.90;99.90;;;;;;4969028;28;20046;-59
2023/09/02 07:13:56;;;;;;;41.42;22.73;;;18.90;99.90;;;;;;4967364;28;20059;-59
2023/09/02 07:16:23;;;;;;;38.75;21.08;;;19.00;99.90;;;;;;4967639;28;20414;-58
2023/09/02 07:18:50;;;;;;;37.05;20.98;;;19.00;99.90;;;;;;4967176;28;20153;-58
2023/09/02 07:21:22;;;;;;;36.03;20.88;;;19.00;99.90;;;;;;4968603;28;20105;-59
2023/09/02 07:23:52;;;;;;;34.78;21.42;;;19.10;99.90;;;;;;4966188;28;20125;-59
2023/09/02 07:26:23;;;;;;;;;;;19.10;99.90;;;;;;4968511;28;20124;-59
2023/09/02 07:28:50;;;;;;;37.50;21.98;;;19.00;99.90;;;;;;4968739;28;19922;-59
2023/09/02 07:31:17;;;;;;;36.67;21.60;;;19.00;99.90;;;;;;4968530;28;20137;-60
2023/09/02 07:33:44;;;;;;;37.75;20.25;;;19.00;99.90;;;;;;4967647;28;20554;-60
2023/09/02 07:36:12;;;;;;;38.97;22.33;;;19.00;99.90;;;;;;4968275;28;20130;-58
2023/09/02 07:38:39;;;;;;;33.30;20.70;;;19.00;99.90;;;;;;4621144;28;10000106;-59
2023/09/02 07:41:07;;;;;;;39.70;20.02;;;18.90;99.90;;;;;;4964445;28;20146;-61
2023/09/02 07:43:34;;;;;;;29.02;18.58;;;19.00;99.90;;;;;;4964610;28;20050;-60
2023/09/02 07:46:00;;;;;;;29.23;19.20;;;19.10;99.90;;;;;;4965166;28;20328;-59
2023/09/02 07:48:27;;;;;;;35.05;20.92;;;19.20;99.90;;;;;;4965152;28;20046;-56
2023/09/02 07:50:54;;;;;;;30.45;19.45;;;19.20;99.90;;;;;;4964523;28;20051;-61
2023/09/02 07:53:21;;;;;;;31.17;19.10;;;19.30;99.90;;;;;;4964887;28;20047;-60
2023/09/02 07:55:48;;;;;;;34.90;19.20;;;19.30;99.90;;;;;;4964330;28;20050;-60
2023/09/02 07:58:15;;;;;;;30.08;17.50;;;19.30;99.90;;;;;;4964553;28;20126;-60
2023/09/02 08:00:42;;;;;;;23.83;16.65;;;19.30;99.90;;;;;;4964731;28;20054;-61
2023/09/02 08:03:09;;;;;;;29.75;17.65;;;19.40;99.90;;;;;;4964511;28;20039;-60
2023/09/02 08:05:39;;;;;;;28.38;17.50;;;19.40;99.90;;;;;;4931568;28;20055;-60
2023/09/02 08:08:06;;;;;;;33.00;17.90;;;19.50;99.90;;;;;;4965299;28;20050;-59
2023/09/02 08:10:33;;;;;;;27.10;16.85;;;19.50;99.90;;;;;;4965115;28;20113;-59
2023/09/02 08:13:04;;;;;;;24.48;16.02;;;19.60;99.90;;;;;;4965391;28;20112;-60
2023/09/02 08:15:31;;;;;;;28.48;17.63;;;19.60;99.90;;;;;;4967815;28;20134;-59
2023/09/02 08:17:58;;;;;;;26.98;15.88;;;19.70;99.90;;;;;;4966162;28;20054;-59
2023/09/02 08:20:25;;;;;;;28.60;15.68;;;19.70;99.90;;;;;;4965161;28;20058;-59
2023/09/02 08:22:52;;;;;;;25.58;15.32;;;19.70;99.90;;;;;;4965484;28;20054;-59
2023/09/02 08:25:19;;;;;;;26.33;15.27;;;19.70;99.90;;;;;;4964263;28;20458;-59
2023/09/02 08:27:46;;;;;;;20.85;13.07;;;19.70;99.90;;;;;;4948484;28;20118;-59
2023/09/02 08:30:13;;;;;;;23.50;14.82;;;19.80;99.90;;;;;;4963366;28;20047;-60
2023/09/02 08:32:40;;;;;;;22.42;13.95;;;19.80;99.90;;;;;;4966698;28;20051;-59
2023/09/02 08:35:08;;;;;;;20.90;13.65;;;19.80;99.90;;;;;;4966516;28;20058;-61
2023/09/02 08:37:37;;;;;;;27.00;14.73;;;19.80;99.90;;;;;;4964759;28;20047;-57
2023/09/02 08:40:04;;;;;;;26.13;13.10;;;19.80;99.90;;;;;;4965582;28;20117;-60
2023/09/02 08:42:33;;;;;;;22.25;13.48;;;19.80;99.90;;;;;;4963910;28;20118;-60
2023/09/02 08:45:00;;;;;;;28.65;12.63;;;19.90;99.90;;;;;;4947473;28;20145;-59
2023/09/02 08:47:27;;;;;;;21.50;13.60;;;19.90;99.90;;;;;;4915428;28;20490;-59
2023/09/02 08:49:55;;;;;;;31.80;14.50;;;20.00;99.90;;;;;;4936781;28;20054;-59
2023/09/02 08:52:21;;;;;;;21.60;13.07;;;20.00;99.90;;;;;;4966639;28;20051;-60
2023/09/02 08:54:48;;;;;;;18.45;12.25;;;20.00;99.90;;;;;;4963728;28;20129;-59
2023/09/02 08:57:17;;;;;;;15.73;10.65;;;20.10;99.90;;;;;;4947017;28;20789;-60
2023/09/02 08:59:44;;;;;;;21.65;11.23;;;20.10;99.90;;;;;;4950395;28;20502;-59
2023/09/02 09:02:12;;;;;;;16.05;9.50;;;20.10;99.90;;;;;;4963475;28;20054;-59
2023/09/02 09:04:39;;;;;;;12.80;8.95;;;20.20;99.90;;;;;;4964220;28;20114;-60
2023/09/02 09:07:06;;;;;;;21.42;8.90;;;20.20;99.90;;;;;;4963409;28;20061;-59
2023/09/02 09:09:33;;;;;;;15.98;8.98;;;20.30;99.90;;;;;;4966002;28;20042;-59
2023/09/02 09:12:01;;;;;;;20.23;11.05;;;20.30;99.90;;;;;;4962957;28;20054;-59
2023/09/02 09:14:33;;;;;;;18.35;9.70;;;20.30;99.90;;;;;;4946289;28;20078;-59
2023/09/02 09:17:00;;;;;;;16.73;8.07;;;20.40;99.90;;;;;;4933564;28;20087;-57
2023/09/02 09:19:27;;;;;;;19.38;7.80;;;20.40;99.90;;;;;;4964986;28;20053;-59
2023/09/02 09:21:55;;;;;;;11.32;7.65;;;20.50;99.90;;;;;;4930627;28;20058;-59
2023/09/02 09:24:21;;;;;;;12.13;7.85;;;20.60;99.90;;;;;;4961466;28;20078;-59
2023/09/02 09:26:49;;;;;;;14.48;6.40;;;20.60;99.90;;;;;;4964461;28;20088;-59
2023/09/02 09:29:17;;;;;;;14.93;7.22;;;20.60;99.90;;;;;;4945975;28;20106;-60
2023/09/02 09:31:44;;;;;;;9.98;6.40;;;20.70;99.90;;;;;;4963321;28;20497;-60
2023/09/02 09:34:11;;;;;;;11.48;6.28;;;20.80;99.90;;;;;;4966268;28;20043;-60
2023/09/02 09:36:37;;;;;;;10.02;4.88;;;20.90;99.90;;;;;;4966586;28;20055;-59
2023/09/02 09:39:05;;;;;;;11.73;6.55;;;20.90;99.90;;;;;;4965961;28;20046;-60
2023/09/02 09:41:33;;;;;;;10.77;5.28;;;21.00;99.90;;;;;;4964072;28;20047;-59
2023/09/02 09:44:16;;;;;;;9.93;5.10;;;21.10;99.90;;;;;;4962475;28;20133;-56
2023/09/02 09:46:43;;;;;;;8.60;4.43;;;21.10;99.90;;;;;;4965241;28;20114;-60
2023/09/02 09:49:29;;;;;;;9.20;3.85;;;21.10;99.90;;;;;;4966309;28;20049;-59
2023/09/02 09:51:59;;;;;;;6.82;3.72;;;21.10;99.90;;;;;;4963222;28;20058;-59
2023/09/02 09:54:45;;;;;;;11.50;4.15;;;21.00;99.90;;;;;;4962920;28;20050;-59
2023/09/02 09:57:34;;;;;;;8.23;3.20;;;21.00;99.90;;;;;;4962329;28;20121;-60
2023/09/02 10:00:01;;;;;;;11.65;4.22;;;20.90;99.90;;;;;;4966264;28;20082;-60
2023/09/02 10:02:28;;;;;;;9.95;4.57;;;21.30;99.90;;;;;;4949207;28;20078;-60
2023/09/02 10:04:56;;;;;;;6.05;3.22;;;21.90;99.90;;;;;;4965396;28;20491;-60
2023/09/02 10:07:32;;;;;;;7.20;3.08;;;22.30;99.90;;;;;;4972100;28;20086;-60
2023/09/02 10:10:02;;;;;;;10.35;3.20;;;22.30;99.90;;;;;;4962624;28;20525;-60
2023/09/02 10:12:35;;;;;;;8.15;3.22;;;22.30;99.90;;;;;;4963594;28;20047;-60
2023/09/02 10:15:06;;;;;;;5.70;3.17;;;22.30;99.90;;;;;;4965544;28;20051;-63
2023/09/02 10:17:33;;;;;;;12.95;4.45;;;22.30;99.90;;;;;;4966682;28;20073;-60
2023/09/02 10:20:00;;;;;;;15.55;4.18;;;22.20;99.90;;;;;;4947185;28;20055;-60
2023/09/02 10:22:29;;;;;;;8.65;2.90;;;22.20;99.90;;;;;;4947887;28;20479;-60
2023/09/02 10:24:58;;;;;;;13.52;4.38;;;22.10;99.90;;;;;;4948579;28;20172;-61
2023/09/02 10:27:25;;;;;;;8.35;3.35;;;22.00;99.90;;;;;;4950096;28;20089;-59
2023/09/02 10:29:57;;;;;;;10.77;3.28;;;22.00;99.90;;;;;;4965263;28;20055;-59
2023/09/02 10:32:45;;;;;;;4.18;2.60;;;22.00;99.90;;;;;;4964194;28;20047;-59
2023/09/02 10:35:22;;;;;;;5.30;2.70;;;21.90;99.90;;;;;;4964696;28;20061;-59
2023/09/02 10:37:56;;;;;;;7.90;2.92;;;22.00;99.90;;;;;;4947882;28;20062;-59
2023/09/02 10:40:27;;;;;;;7.05;2.25;;;22.10;99.90;;;;;;4966105;28;20410;-63
2023/09/02 10:42:54;;;;;;;8.07;2.90;;;22.10;99.90;;;;;;4964290;28;20586;-60
2023/09/02 10:45:21;;;;;;;6.28;2.60;;;22.10;99.90;;;;;;4963890;28;20051;-60
2023/09/02 10:47:49;;;;;;;9.27;3.08;;;22.10;99.90;;;;;;4964796;28;20057;-59
2023/09/02 10:50:20;;;;;;;5.90;3.33;;;22.00;99.90;;;;;;4947094;28;20063;-59
2023/09/02 10:52:50;;;;;;;4.38;2.20;;;22.00;99.90;;;;;;4963802;28;20050;-58
2023/09/02 10:56:00;;;;;;;2.95;1.50;;;21.90;99.90;;;;;;4950696;28;20057;-59
2023/09/02 10:58:27;;;;;;;3.15;2.13;;;21.90;99.90;;;;;;4964097;28;20979;-58
2023/09/02 11:00:54;;;;;;;3.25;2.08;;;21.90;99.90;;;;;;4963512;28;20560;-59
2023/09/02 11:03:44;;;;;;;6.50;2.40;;;21.90;99.90;;;;;;4964030;28;20057;-58
2023/09/02 11:06:14;;;;;;;4.38;2.03;;;22.00;99.90;;;;;;4964512;28;20073;-60
2023/09/02 11:08:49;;;;;;;10.32;2.55;;;22.10;99.90;;;;;;4964847;28;20046;-59
2023/09/02 11:11:19;;;;;;;8.27;2.53;;;22.10;99.90;;;;;;4963959;28;20117;-59
2023/09/02 11:14:07;;;;;;;5.07;2.35;;;22.20;99.90;;;;;;4948507;28;20050;-59
2023/09/02 11:16:35;;;;;;;5.78;2.30;;;22.20;99.90;;;;;;4964292;28;20848;-59
2023/09/02 11:19:08;;;;;;;9.73;2.10;;;22.40;99.90;;;;;;4964776;28;20137;-59
2023/09/02 11:21:35;;;;;;;3.38;1.80;;;22.60;99.90;;;;;;4965424;28;20050;-59
2023/09/02 11:24:14;;;;;;;6.32;2.25;;;22.80;99.90;;;;;;4965828;28;20109;-59
2023/09/02 11:26:57;;;;;;;5.00;1.80;;;22.80;99.90;;;;;;4965776;28;20046;-60
2023/09/02 11:29:28;;;;;;;5.18;1.90;;;22.70;99.90;;;;;;4963556;28;20533;-59
2023/09/02 11:31:59;;;;;;;12.85;2.40;;;22.70;99.90;;;;;;4963304;28;20047;-59
2023/09/02 11:34:27;;;;;;;5.30;1.90;;;22.60;99.90;;;;;;4946742;28;20450;-60
2023/09/02 11:36:56;;;;;;;7.18;1.70;;;22.70;99.90;;;;;;4966058;28;20753;-60
2023/09/02 11:39:27;;;;;;;5.50;1.85;;;22.70;99.90;;;;;;4962816;28;20146;-59
2023/09/02 11:42:12;;;;;;;5.68;2.30;;;22.70;99.90;;;;;;4964412;28;20446;-60
2023/09/02 11:44:39;;;;;;;4.72;1.75;;;22.80;99.90;;;;;;4960715;28;20055;-61
2023/09/02 11:47:06;;;;;;;7.30;1.92;;;22.80;99.90;;;;;;4963789;28;20117;-59
2023/09/02 11:49:35;;;;;;;7.88;2.10;;;22.80;99.90;;;;;;4966258;28;20553;-59
2023/09/02 11:52:02;;;;;;;3.55;1.38;;;23.00;99.90;;;;;;4933514;28;20053;-60
2023/09/02 11:54:29;;;;;;;8.73;2.33;;;23.00;99.90;;;;;;4964839;28;20167;-60
2023/09/02 11:57:02;;;;;;;5.13;1.65;;;23.00;99.90;;;;;;4965255;28;20082;-59
2023/09/02 11:59:29;;;;;;;7.80;2.78;;;22.90;99.90;;;;;;4963678;28;20058;-59
2023/09/02 12:02:10;;;;;;;6.85;2.20;;;22.80;99.90;;;;;;4966100;28;20055;-60
2023/09/02 12:04:37;;;;;;;3.20;1.35;;;22.80;99.90;;;;;;4964786;28;20051;-59
2023/09/02 12:07:05;;;;;;;6.57;1.70;;;22.90;99.90;;;;;;4964173;28;20050;-60
2023/09/02 12:09:32;;;;;;;6.95;2.60;;;23.00;99.90;;;;;;4946380;28;20070;-60
2023/09/02 12:11:59;;;;;;;4.63;1.52;;;23.00;99.90;;;;;;4946548;28;20522;-60
2023/09/02 12:14:27;;;;;;;7.65;1.52;;;23.00;99.90;;;;;;4961084;28;20362;-60
2023/09/02 12:17:00;;;;;;;6.47;2.42;;;22.90;99.90;;;;;;4964959;28;20054;-59
2023/09/02 12:19:27;;;;;;;;;;;23.00;99.90;;;;;;4963520;28;20046;-60
2023/09/02 12:21:54;;;;;;;5.15;2.50;;;22.90;99.90;;;;;;4964510;28;20045;-59
2023/09/02 12:24:21;;;;;;;9.90;2.60;;;23.00;99.90;;;;;;4963138;28;20289;-59
2023/09/02 12:26:49;;;;;;;12.95;2.65;;;23.10;99.90;;;;;;4947447;28;20050;-60
2023/09/02 12:29:19;;;;;;;9.45;3.05;;;23.30;99.90;;;;;;4967280;28;20691;-60
2023/09/02 12:31:59;;;;;;;9.77;2.40;;;23.40;99.90;;;;;;4966142;28;20057;-60
2023/09/02 12:34:33;;;;;;;8.35;2.35;;;23.40;99.90;;;;;;4961706;28;20141;-60
2023/09/02 12:37:16;;;;;;;6.10;2.20;;;23.40;99.90;;;;;;4962894;28;20038;-60
2023/09/02 12:39:43;;;;;;;6.57;1.83;;;23.30;99.90;;;;;;4962485;28;20058;-60